sensor_id;sensor_type;location;lat;lon;timestamp;P1;P2;P0
68698;PMS7003;55680;48.850;2.310;2023-10-13T00:00:26;0.00;0.00;0.00
68698;PMS7003;55680;48.850;2.310;2023-10-13T00:02:54;1.00;1.00;0.00
68698;PMS7003;55680;48.850;2.310;2023-10-13T00:05:27;0.00;0.00;0.00
68698;PMS7003;55680;48.850;2.310;2023-10-13T00:07:53;0.00;0.00;0.00
68698;PMS7003;55680;48.850;2.310;2023-10-13T00:10:19;0.00;0.00;0.00
68698;PMS7003;55680;48.850;2.310;2023-10-13T00:12:44;0.00;0.00;0.00
68698;PMS7003;55680;48.850;2.310;2023-10-13T00:15:15;0.00;0.00;0.00
68698;PMS7003;55680;48.850;2.310;2023-10-13T00:17:45;2.00;0.00;0.00
68698;PMS7003;55680;48.850;2.310;2023-10-13T00:20:11;0.50;0.00;0.00
68698;PMS7003;55680;48.850;2.310;2023-10-13T00:22:53;0.50;0.50;0.00
68698;PMS7003;55680;48.850;2.310;2023-10-13T00:25:22;0.00;0.00;0.00
68698;PMS7003;55680;48.850;2.310;2023-10-13T00:27:52;0.00;0.00;0.00
68698;PMS7003;55680;48.850;2.310;2023-10-13T00:30:17;0.00;0.00;0.00
68698;PMS7003;55680;48.850;2.310;2023-10-13T00:32:58;4.75;2.00;1.00
68698;PMS7003;55680;48.850;2.310;2023-10-13T00:35:27;0.00;0.00;0.00
68698;PMS7003;55680;48.850;2.310;2023-10-13T00:37:57;0.00;0.00;0.00
68698;PMS7003;55680;48.850;2.310;2023-10-13T00:40:29;1.00;0.50;0.00
68698;PMS7003;55680;48.850;2.310;2023-10-13T00:42:55;0.00;0.00;0.00
68698;PMS7003;55680;48.850;2.310;2023-10-13T00:45:28;0.00;0.00;0.00
68698;PMS7003;55680;48.850;2.310;2023-10-13T00:47:56;0.50;0.50;0.00
68698;PMS7003;55680;48.850;2.310;2023-10-13T00:50:22;0.50;0.50;0.00
68698;PMS7003;55680;48.850;2.310;2023-10-13T00:52:49;0.00;0.00;0.00
68698;PMS7003;55680;48.850;2.310;2023-10-13T00:55:15;1.00;1.00;1.00
68698;PMS7003;55680;48.850;2.310;2023-10-13T00:57:43;0.50;0.50;0.25
68698;PMS7003;55680;48.850;2.310;2023-10-13T01:00:11;1.75;0.00;0.00
68698;PMS7003;55680;48.850;2.310;2023-10-13T01:02:44;0.00;0.00;0.00
68698;PMS7003;55680;48.850;2.310;2023-10-13T01:05:20;0.00;0.00;0.00
68698;PMS7003;55680;48.850;2.310;2023-10-13T01:07:46;0.50;0.50;0.50
68698;PMS7003;55680;48.850;2.310;2023-10-13T01:10:21;0.00;0.00;0.00
68698;PMS7003;55680;48.850;2.310;2023-10-13T01:12:51;0.00;0.00;0.00
68698;PMS7003;55680;48.850;2.310;2023-10-13T01:15:17;6.50;1.00;1.00
68698;PMS7003;55680;48.850;2.310;2023-10-13T01:17:45;0.00;0.00;0.00
68698;PMS7003;55680;48.850;2.310;2023-10-13T01:20:11;0.50;0.50;0.00
68698;PMS7003;55680;48.850;2.310;2023-10-13T01:22:46;0.00;0.00;0.00
68698;PMS7003;55680;48.850;2.310;2023-10-13T01:25:21;0.00;0.00;0.00
68698;PMS7003;55680;48.850;2.310;2023-10-13T01:27:52;0.00;0.00;0.00
68698;PMS7003;55680;48.850;2.310;2023-10-13T01:30:17;1.00;1.00;0.00
68698;PMS7003;55680;48.850;2.310;2023-10-13T01:32:48;0.25;0.25;0.00
68698;PMS7003;55680;48.850;2.310;2023-10-13T01:35:15;1.00;1.00;0.00
68698;PMS7003;55680;48.850;2.310;2023-10-13T01:37:43;0.00;0.00;0.00
68698;PMS7003;55680;48.850;2.310;2023-10-13T01:40:10;1.75;0.00;0.00
68698;PMS7003;55680;48.850;2.310;2023-10-13T01:42:36;1.00;1.00;0.00
68698;PMS7003;55680;48.850;2.310;2023-10-13T01:45:02;0.00;0.00;0.00
68698;PMS7003;55680;48.850;2.310;2023-10-13T01:47:31;2.00;0.00;0.00
68698;PMS7003;55680;48.850;2.310;2023-10-13T01:49:58;0.00;0.00;0.00
68698;PMS7003;55680;48.850;2.310;2023-10-13T01:52:31;0.00;0.00;0.00
68698;PMS7003;55680;48.850;2.310;2023-10-13T01:54:57;2.00;1.00;0.00
68698;PMS7003;55680;48.850;2.310;2023-10-13T01:57:26;0.00;0.00;0.00
68698;PMS7003;55680;48.850;2.310;2023-10-13T01:59:53;3.00;0.00;0.00
68698;PMS7003;55680;48.850;2.310;2023-10-13T02:02:20;1.00;1.00;1.00
68698;PMS7003;55680;48.850;2.310;2023-10-13T02:04:53;0.00;0.00;0.00
68698;PMS7003;55680;48.850;2.310;2023-10-13T02:07:25;1.25;1.25;0.00
68698;PMS7003;55680;48.850;2.310;2023-10-13T02:09:54;0.00;0.00;0.00
68698;PMS7003;55680;48.850;2.310;2023-10-13T02:12:20;0.00;0.00;0.00
68698;PMS7003;55680;48.850;2.310;2023-10-13T02:14:54;0.00;0.00;0.00
68698;PMS7003;55680;48.850;2.310;2023-10-13T02:17:19;1.00;1.00;0.00
68698;PMS7003;55680;48.850;2.310;2023-10-13T02:19:48;1.50;0.00;0.00
68698;PMS7003;55680;48.850;2.310;2023-10-13T02:22:14;1.00;1.00;0.50
68698;PMS7003;55680;48.850;2.310;2023-10-13T02:24:56;0.00;0.00;0.00
68698;PMS7003;55680;48.850;2.310;2023-10-13T02:27:26;0.00;0.00;0.00
68698;PMS7003;55680;48.850;2.310;2023-10-13T02:29:52;0.00;0.00;0.00
68698;PMS7003;55680;48.850;2.310;2023-10-13T02:32:23;0.75;0.75;0.00
68698;PMS7003;55680;48.850;2.310;2023-10-13T02:34:49;4.00;1.00;0.25
68698;PMS7003;55680;48.850;2.310;2023-10-13T02:37:14;0.00;0.00;0.00
68698;PMS7003;55680;48.850;2.310;2023-10-13T02:39:41;1.00;1.00;0.50
68698;PMS7003;55680;48.850;2.310;2023-10-13T02:42:07;2.00;1.00;0.00
68698;PMS7003;55680;48.850;2.310;2023-10-13T02:44:33;0.25;0.25;0.00
68698;PMS7003;55680;48.850;2.310;2023-10-13T02:47:01;1.00;1.00;0.00
68698;PMS7003;55680;48.850;2.310;2023-10-13T02:49:27;1.00;0.50;0.00
68698;PMS7003;55680;48.850;2.310;2023-10-13T02:51:56;1.00;1.00;0.00
68698;PMS7003;55680;48.850;2.310;2023-10-13T02:54:23;2.00;0.00;0.00
68698;PMS7003;55680;48.850;2.310;2023-10-13T02:56:55;1.00;1.00;0.00
68698;PMS7003;55680;48.850;2.310;2023-10-13T02:59:28;0.00;0.00;0.00
68698;PMS7003;55680;48.850;2.310;2023-10-13T03:02:05;0.00;0.00;0.00
68698;PMS7003;55680;48.850;2.310;2023-10-13T03:04:46;3.00;0.00;0.00
68698;PMS7003;55680;48.850;2.310;2023-10-13T03:07:12;0.00;0.00;0.00
68698;PMS7003;55680;48.850;2.310;2023-10-13T03:09:41;0.00;0.00;0.00
68698;PMS7003;55680;48.850;2.310;2023-10-13T03:12:15;0.00;0.00;0.00
68698;PMS7003;55680;48.850;2.310;2023-10-13T03:14:44;0.00;0.00;0.00
68698;PMS7003;55680;48.850;2.310;2023-10-13T03:17:13;0.50;0.00;0.00
68698;PMS7003;55680;48.850;2.310;2023-10-13T03:19:47;1.25;0.25;0.25
68698;PMS7003;55680;48.850;2.310;2023-10-13T03:22:16;0.50;0.50;0.00
68698;PMS7003;55680;48.850;2.310;2023-10-13T03:24:43;0.00;0.00;0.00
68698;PMS7003;55680;48.850;2.310;2023-10-13T03:27:12;0.00;0.00;0.00
68698;PMS7003;55680;48.850;2.310;2023-10-13T03:30:03;0.00;0.00;0.00
68698;PMS7003;55680;48.850;2.310;2023-10-13T03:32:35;1.25;0.00;0.00
68698;PMS7003;55680;48.850;2.310;2023-10-13T03:35:07;1.00;1.00;0.75
68698;PMS7003;55680;48.850;2.310;2023-10-13T03:37:38;0.00;0.00;0.00
68698;PMS7003;55680;48.850;2.310;2023-10-13T03:40:04;1.50;0.00;0.00
68698;PMS7003;55680;48.850;2.310;2023-10-13T03:42:49;0.50;0.50;0.00
68698;PMS7003;55680;48.850;2.310;2023-10-13T03:45:27;0.00;0.00;0.00
68698;PMS7003;55680;48.850;2.310;2023-10-13T03:47:52;0.00;0.00;0.00
68698;PMS7003;55680;48.850;2.310;2023-10-13T03:50:19;0.75;0.75;0.00
68698;PMS7003;55680;48.850;2.310;2023-10-13T03:52:55;1.75;0.50;0.00
68698;PMS7003;55680;48.850;2.310;2023-10-13T03:55:24;0.25;0.00;0.00
68698;PMS7003;55680;48.850;2.310;2023-10-13T03:57:52;0.00;0.00;0.00
68698;PMS7003;55680;48.850;2.310;2023-10-13T04:00:19;0.00;0.00;0.00
68698;PMS7003;55680;48.850;2.310;2023-10-13T04:02:56;0.00;0.00;0.00
68698;PMS7003;55680;48.850;2.310;2023-10-13T04:05:28;0.25;0.25;0.00
68698;PMS7003;55680;48.850;2.310;2023-10-13T04:08:09;0.25;0.25;0.25
68698;PMS7003;55680;48.850;2.310;2023-10-13T04:10:53;0.75;0.75;0.00
68698;PMS7003;55680;48.850;2.310;2023-10-13T04:13:19;0.00;0.00;0.00
68698;PMS7003;55680;48.850;2.310;2023-10-13T04:16:04;2.00;1.00;1.00
68698;PMS7003;55680;48.850;2.310;2023-10-13T04:18:48;4.00;1.75;0.00
68698;PMS7003;55680;48.850;2.310;2023-10-13T04:21:19;0.00;0.00;0.00
68698;PMS7003;55680;48.850;2.310;2023-10-13T04:24:11;3.75;1.00;0.00
68698;PMS7003;55680;48.850;2.310;2023-10-13T04:26:43;0.00;0.00;0.00
68698;PMS7003;55680;48.850;2.310;2023-10-13T04:29:27;1.00;0.00;0.00
68698;PMS7003;55680;48.850;2.310;2023-10-13T04:31:57;1.00;0.00;0.00
68698;PMS7003;55680;48.850;2.310;2023-10-13T04:34:25;0.00;0.00;0.00
68698;PMS7003;55680;48.850;2.310;2023-10-13T04:36:53;0.25;0.25;0.00
68698;PMS7003;55680;48.850;2.310;2023-10-13T04:39:35;0.00;0.00;0.00
68698;PMS7003;55680;48.850;2.310;2023-10-13T04:42:03;1.00;0.00;0.00
68698;PMS7003;55680;48.850;2.310;2023-10-13T04:44:38;0.00;0.00;0.00
68698;PMS7003;55680;48.850;2.310;2023-10-13T04:47:06;2.25;0.00;0.00
68698;PMS7003;55680;48.850;2.310;2023-10-13T04:49:42;0.00;0.00;0.00
68698;PMS7003;55680;48.850;2.310;2023-10-13T04:52:08;1.00;1.00;0.00
68698;PMS7003;55680;48.850;2.310;2023-10-13T04:54:35;3.25;1.00;1.00
68698;PMS7003;55680;48.850;2.310;2023-10-13T04:57:16;1.00;1.00;0.50
68698;PMS7003;55680;48.850;2.310;2023-10-13T04:59:48;1.00;1.00;0.00
68698;PMS7003;55680;48.850;2.310;2023-10-13T05:02:33;0.75;0.75;0.75
68698;PMS7003;55680;48.850;2.310;2023-10-13T05:05:07;3.50;1.00;0.00
68698;PMS7003;55680;48.850;2.310;2023-10-13T05:07:47;1.00;1.00;0.50
68698;PMS7003;55680;48.850;2.310;2023-10-13T05:10:32;0.00;0.00;0.00
68698;PMS7003;55680;48.850;2.310;2023-10-13T05:13:31;2.00;0.50;0.00
68698;PMS7003;55680;48.850;2.310;2023-10-13T05:16:14;1.00;1.00;1.00
68698;PMS7003;55680;48.850;2.310;2023-10-13T05:18:58;4.00;2.00;1.00
68698;PMS7003;55680;48.850;2.310;2023-10-13T05:21:43;2.00;2.00;1.00
68698;PMS7003;55680;48.850;2.310;2023-10-13T05:24:27;4.00;1.00;0.00
68698;PMS7003;55680;48.850;2.310;2023-10-13T05:27:12;1.00;1.00;0.50
68698;PMS7003;55680;48.850;2.310;2023-10-13T05:29:56;1.00;1.00;0.00
68698;PMS7003;55680;48.850;2.310;2023-10-13T05:32:40;1.00;1.00;0.00
68698;PMS7003;55680;48.850;2.310;2023-10-13T05:35:24;0.00;0.00;0.00
68698;PMS7003;55680;48.850;2.310;2023-10-13T05:38:08;1.75;0.50;0.50
68698;PMS7003;55680;48.850;2.310;2023-10-13T05:40:53;2.00;2.00;0.75
68698;PMS7003;55680;48.850;2.310;2023-10-13T05:43:40;1.00;1.00;0.00
68698;PMS7003;55680;48.850;2.310;2023-10-13T05:46:24;6.25;2.00;1.00
68698;PMS7003;55680;48.850;2.310;2023-10-13T05:48:50;4.25;2.00;1.25
68698;PMS7003;55680;48.850;2.310;2023-10-13T05:51:25;1.00;1.00;1.00
68698;PMS7003;55680;48.850;2.310;2023-10-13T05:54:09;5.75;4.25;2.00
68698;PMS7003;55680;48.850;2.310;2023-10-13T05:56:39;1.00;1.00;1.00
68698;PMS7003;55680;48.850;2.310;2023-10-13T05:59:22;1.50;1.50;1.00
68698;PMS7003;55680;48.850;2.310;2023-10-13T06:02:06;1.50;1.50;0.50
68698;PMS7003;55680;48.850;2.310;2023-10-13T06:04:50;1.00;1.00;1.00
68698;PMS7003;55680;48.850;2.310;2023-10-13T06:07:34;2.00;2.00;1.00
68698;PMS7003;55680;48.850;2.310;2023-10-13T06:10:18;4.00;3.50;1.00
68698;PMS7003;55680;48.850;2.310;2023-10-13T06:13:02;2.00;2.00;1.00
68698;PMS7003;55680;48.850;2.310;2023-10-13T06:15:46;3.50;3.50;2.00
68698;PMS7003;55680;48.850;2.310;2023-10-13T06:18:30;2.50;1.00;1.00
68698;PMS7003;55680;48.850;2.310;2023-10-13T06:21:14;1.00;1.00;0.50
68698;PMS7003;55680;48.850;2.310;2023-10-13T06:23:58;3.00;3.00;1.25
68698;PMS7003;55680;48.850;2.310;2023-10-13T06:26:42;3.50;1.00;0.00
68698;PMS7003;55680;48.850;2.310;2023-10-13T06:29:26;9.00;4.25;4.00
68698;PMS7003;55680;48.850;2.310;2023-10-13T06:31:51;2.50;1.50;0.25
68698;PMS7003;55680;48.850;2.310;2023-10-13T06:34:17;2.50;2.50;1.50
68698;PMS7003;55680;48.850;2.310;2023-10-13T06:36:45;1.00;1.00;1.00
68698;PMS7003;55680;48.850;2.310;2023-10-13T06:39:12;4.00;1.25;1.00
68698;PMS7003;55680;48.850;2.310;2023-10-13T06:41:56;4.00;1.00;0.50
68698;PMS7003;55680;48.850;2.310;2023-10-13T06:44:21;1.00;1.00;0.00
68698;PMS7003;55680;48.850;2.310;2023-10-13T06:46:47;1.50;1.50;1.00
68698;PMS7003;55680;48.850;2.310;2023-10-13T06:49:15;6.00;2.00;1.00
68698;PMS7003;55680;48.850;2.310;2023-10-13T06:51:43;3.50;3.50;2.00
68698;PMS7003;55680;48.850;2.310;2023-10-13T06:54:11;5.00;2.00;1.00
68698;PMS7003;55680;48.850;2.310;2023-10-13T06:56:44;1.00;1.00;1.00
68698;PMS7003;55680;48.850;2.310;2023-10-13T06:59:10;2.25;2.25;1.00
68698;PMS7003;55680;48.850;2.310;2023-10-13T07:01:38;4.75;2.00;1.00
68698;PMS7003;55680;48.850;2.310;2023-10-13T07:04:08;3.00;2.00;1.00
68698;PMS7003;55680;48.850;2.310;2023-10-13T07:06:41;1.00;1.00;1.00
68698;PMS7003;55680;48.850;2.310;2023-10-13T07:09:12;0.25;0.25;0.00
68698;PMS7003;55680;48.850;2.310;2023-10-13T07:11:58;1.00;1.00;0.25
68698;PMS7003;55680;48.850;2.310;2023-10-13T07:14:26;4.00;1.00;0.75
68698;PMS7003;55680;48.850;2.310;2023-10-13T07:16:55;1.25;1.00;1.00
68698;PMS7003;55680;48.850;2.310;2023-10-13T07:19:32;1.00;1.00;1.00
68698;PMS7003;55680;48.850;2.310;2023-10-13T07:21:59;2.50;1.00;1.00
68698;PMS7003;55680;48.850;2.310;2023-10-13T07:24:47;1.50;1.50;1.00
68698;PMS7003;55680;48.850;2.310;2023-10-13T07:27:18;4.00;0.75;0.00
68698;PMS7003;55680;48.850;2.310;2023-10-13T07:29:50;2.00;2.00;1.00
68698;PMS7003;55680;48.850;2.310;2023-10-13T07:32:24;2.50;1.00;0.00
68698;PMS7003;55680;48.850;2.310;2023-10-13T07:34:54;6.25;4.00;1.50
68698;PMS7003;55680;48.850;2.310;2023-10-13T07:37:22;1.25;1.00;0.50
68698;PMS7003;55680;48.850;2.310;2023-10-13T07:39:53;1.75;1.75;0.50
68698;PMS7003;55680;48.850;2.310;2023-10-13T07:42:18;2.00;1.50;1.00
68698;PMS7003;55680;48.850;2.310;2023-10-13T07:44:47;1.00;1.00;0.25
68698;PMS7003;55680;48.850;2.310;2023-10-13T07:47:12;3.50;2.50;2.00
68698;PMS7003;55680;48.850;2.310;2023-10-13T07:49:39;1.50;1.50;1.00
68698;PMS7003;55680;48.850;2.310;2023-10-13T07:52:05;2.00;2.00;1.00
68698;PMS7003;55680;48.850;2.310;2023-10-13T07:54:51;4.00;1.75;1.00
68698;PMS7003;55680;48.850;2.310;2023-10-13T07:57:35;2.00;2.00;1.50
68698;PMS7003;55680;48.850;2.310;2023-10-13T08:00:00;2.50;2.50;1.50
68698;PMS7003;55680;48.850;2.310;2023-10-13T08:02:56;4.00;1.00;1.00
68698;PMS7003;55680;48.850;2.310;2023-10-13T08:05:33;3.25;3.00;2.00
68698;PMS7003;55680;48.850;2.310;2023-10-13T08:08:20;4.75;3.00;2.00
68698;PMS7003;55680;48.850;2.310;2023-10-13T08:10:47;1.00;1.00;1.00
68698;PMS7003;55680;48.850;2.310;2023-10-13T08:13:12;0.75;0.75;0.75
68698;PMS7003;55680;48.850;2.310;2023-10-13T08:15:41;3.75;3.75;1.25
68698;PMS7003;55680;48.850;2.310;2023-10-13T08:18:13;1.00;1.00;0.00
68698;PMS7003;55680;48.850;2.310;2023-10-13T08:20:56;2.50;1.00;1.00
68698;PMS7003;55680;48.850;2.310;2023-10-13T08:23:28;4.00;1.00;0.25
68698;PMS7003;55680;48.850;2.310;2023-10-13T08:26:20;5.25;4.00;1.00
68698;PMS7003;55680;48.850;2.310;2023-10-13T08:28:58;3.00;1.50;1.00
68698;PMS7003;55680;48.850;2.310;2023-10-13T08:31:50;1.50;1.50;1.00
68698;PMS7003;55680;48.850;2.310;2023-10-13T08:34:35;2.00;1.00;1.00
68698;PMS7003;55680;48.850;2.310;2023-10-13T08:37:07;1.00;1.00;1.00
68698;PMS7003;55680;48.850;2.310;2023-10-13T08:39:57;2.00;2.00;1.00
68698;PMS7003;55680;48.850;2.310;2023-10-13T08:42:43;2.25;2.00;1.00
68698;PMS7003;55680;48.850;2.310;2023-10-13T08:45:10;5.25;5.25;4.25
68698;PMS7003;55680;48.850;2.310;2023-10-13T08:48:06;3.25;2.00;1.00
68698;PMS7003;55680;48.850;2.310;2023-10-13T08:50:36;6.25;4.75;4.25
68698;PMS7003;55680;48.850;2.310;2023-10-13T08:53:26;6.25;5.00;5.00
68698;PMS7003;55680;48.850;2.310;2023-10-13T08:55:56;5.50;5.25;4.00
68698;PMS7003;55680;48.850;2.310;2023-10-13T08:58:43;3.50;2.00;1.25
68698;PMS7003;55680;48.850;2.310;2023-10-13T09:01:19;5.00;4.50;1.50
68698;PMS7003;55680;48.850;2.310;2023-10-13T09:04:00;2.00;2.00;2.00
68698;PMS7003;55680;48.850;2.310;2023-10-13T09:06:46;6.25;4.00;3.00
68698;PMS7003;55680;48.850;2.310;2023-10-13T09:09:21;5.75;3.25;3.00
68698;PMS7003;55680;48.850;2.310;2023-10-13T09:11:55;3.75;3.75;3.00
68698;PMS7003;55680;48.850;2.310;2023-10-13T09:14:37;4.00;3.00;2.00
68698;PMS7003;55680;48.850;2.310;2023-10-13T09:17:08;4.75;2.25;2.00
68698;PMS7003;55680;48.850;2.310;2023-10-13T09:19:47;8.00;4.75;2.25
68698;PMS7003;55680;48.850;2.310;2023-10-13T09:22:24;5.75;5.75;3.50
68698;PMS7003;55680;48.850;2.310;2023-10-13T09:25:03;6.00;4.00;3.00
68698;PMS7003;55680;48.850;2.310;2023-10-13T09:27:30;5.00;3.00;2.00
68698;PMS7003;55680;48.850;2.310;2023-10-13T09:29:58;3.25;3.00;2.00
68698;PMS7003;55680;48.850;2.310;2023-10-13T09:32:43;5.25;4.00;3.00
68698;PMS7003;55680;48.850;2.310;2023-10-13T09:35:20;3.75;2.75;2.00
68698;PMS7003;55680;48.850;2.310;2023-10-13T09:37:52;6.75;3.75;2.75
68698;PMS7003;55680;48.850;2.310;2023-10-13T09:40:21;5.50;5.50;3.00
68698;PMS7003;55680;48.850;2.310;2023-10-13T09:42:53;8.50;5.75;4.00
68698;PMS7003;55680;48.850;2.310;2023-10-13T09:45:28;7.00;5.50;3.00
68698;PMS7003;55680;48.850;2.310;2023-10-13T09:48:01;3.25;3.25;2.00
68698;PMS7003;55680;48.850;2.310;2023-10-13T09:50:33;8.50;5.50;3.00
68698;PMS7003;55680;48.850;2.310;2023-10-13T09:53:03;5.00;5.00;3.00
68698;PMS7003;55680;48.850;2.310;2023-10-13T09:55:35;6.00;6.00;4.50
68698;PMS7003;55680;48.850;2.310;2023-10-13T09:58:07;8.75;5.50;4.00
68698;PMS7003;55680;48.850;2.310;2023-10-13T10:00:52;4.25;4.25;3.00
68698;PMS7003;55680;48.850;2.310;2023-10-13T10:03:23;4.75;4.00;3.25
68698;PMS7003;55680;48.850;2.310;2023-10-13T10:06:01;4.25;4.25;3.00
68698;PMS7003;55680;48.850;2.310;2023-10-13T10:08:47;5.00;5.00;3.75
68698;PMS7003;55680;48.850;2.310;2023-10-13T10:19:24;5.75;3.00;2.00
68698;PMS7003;55680;48.850;2.310;2023-10-13T10:22:00;5.50;4.00;3.50
68698;PMS7003;55680;48.850;2.310;2023-10-13T10:24:29;4.75;4.00;3.00
68698;PMS7003;55680;48.850;2.310;2023-10-13T10:27:01;7.25;6.00;4.00
68698;PMS7003;55680;48.850;2.310;2023-10-13T10:29:29;3.25;3.25;3.00
68698;PMS7003;55680;48.850;2.310;2023-10-13T10:31:57;4.75;3.50;3.00
68698;PMS7003;55680;48.850;2.310;2023-10-13T10:34:29;5.00;4.00;2.75
68698;PMS7003;55680;48.850;2.310;2023-10-13T10:36:57;3.50;3.50;3.00
68698;PMS7003;55680;48.850;2.310;2023-10-13T10:39:35;7.25;6.00;4.00
68698;PMS7003;55680;48.850;2.310;2023-10-13T10:42:11;3.25;3.25;3.00
68698;PMS7003;55680;48.850;2.310;2023-10-13T10:44:41;5.25;4.00;4.00
68698;PMS7003;55680;48.850;2.310;2023-10-13T10:47:17;8.50;5.50;4.75
68698;PMS7003;55680;48.850;2.310;2023-10-13T10:50:02;4.25;4.25;3.00
68698;PMS7003;55680;48.850;2.310;2023-10-13T10:52:44;5.25;4.50;3.00
68698;PMS7003;55680;48.850;2.310;2023-10-13T10:55:11;4.00;4.00;3.50
68698;PMS7003;55680;48.850;2.310;2023-10-13T10:57:39;5.00;3.25;2.25
68698;PMS7003;55680;48.850;2.310;2023-10-13T11:00:18;4.25;3.00;2.00
68698;PMS7003;55680;48.850;2.310;2023-10-13T11:03:05;6.00;4.25;3.00
68698;PMS7003;55680;48.850;2.310;2023-10-13T11:05:30;6.75;5.50;3.75
68698;PMS7003;55680;48.850;2.310;2023-10-13T11:07:58;5.00;4.00;2.50
68698;PMS7003;55680;48.850;2.310;2023-10-13T11:10:24;7.00;5.25;2.50
68698;PMS7003;55680;48.850;2.310;2023-10-13T11:12:53;5.00;3.25;3.00
68698;PMS7003;55680;48.850;2.310;2023-10-13T11:15:45;4.00;4.00;3.00
68698;PMS7003;55680;48.850;2.310;2023-10-13T11:18:10;6.25;5.00;4.00
68698;PMS7003;55680;48.850;2.310;2023-10-13T11:20:59;4.00;3.50;3.00
68698;PMS7003;55680;48.850;2.310;2023-10-13T11:23:24;4.00;3.00;2.25
68698;PMS7003;55680;48.850;2.310;2023-10-13T11:25:57;6.00;6.00;3.00
68698;PMS7003;55680;48.850;2.310;2023-10-13T11:28:24;4.75;4.75;3.25
68698;PMS7003;55680;48.850;2.310;2023-10-13T11:30:53;4.00;3.00;3.00
68698;PMS7003;55680;48.850;2.310;2023-10-13T11:33:24;6.50;4.75;3.75
68698;PMS7003;55680;48.850;2.310;2023-10-13T11:35:53;5.25;3.00;3.00
68698;PMS7003;55680;48.850;2.310;2023-10-13T11:38:22;5.00;4.00;2.00
68698;PMS7003;55680;48.850;2.310;2023-10-13T11:41:07;4.25;4.25;3.25
68698;PMS7003;55680;48.850;2.310;2023-10-13T11:43:40;3.75;3.00;2.50
68698;PMS7003;55680;48.850;2.310;2023-10-13T11:46:16;7.50;6.50;3.00
68698;PMS7003;55680;48.850;2.310;2023-10-13T11:51:51;4.25;4.25;3.00
68698;PMS7003;55680;48.850;2.310;2023-10-13T11:54:17;8.50;7.00;3.50
68698;PMS7003;55680;48.850;2.310;2023-10-13T11:56:44;5.75;3.00;2.00
68698;PMS7003;55680;48.850;2.310;2023-10-13T11:59:10;3.75;3.75;2.50
68698;PMS7003;55680;48.850;2.310;2023-10-13T12:01:46;5.75;5.25;4.75
68698;PMS7003;55680;48.850;2.310;2023-10-13T12:04:30;6.00;4.00;2.00
68698;PMS7003;55680;48.850;2.310;2023-10-13T12:07:14;3.50;3.50;1.00
68698;PMS7003;55680;48.850;2.310;2023-10-13T12:09:43;5.00;3.50;2.25
68698;PMS7003;55680;48.850;2.310;2023-10-13T12:12:21;8.00;4.75;3.00
68698;PMS7003;55680;48.850;2.310;2023-10-13T12:14:47;3.75;3.75;2.50
68698;PMS7003;55680;48.850;2.310;2023-10-13T12:17:22;6.00;3.50;3.00
68698;PMS7003;55680;48.850;2.310;2023-10-13T12:20:01;7.75;6.50;4.25
68698;PMS7003;55680;48.850;2.310;2023-10-13T12:22:31;2.00;2.00;2.00
68698;PMS7003;55680;48.850;2.310;2023-10-13T12:25:10;3.50;3.50;2.00
68698;PMS7003;55680;48.850;2.310;2023-10-13T12:27:59;2.00;2.00;1.50
68698;PMS7003;55680;48.850;2.310;2023-10-13T12:30:47;2.50;2.50;2.00
68698;PMS7003;55680;48.850;2.310;2023-10-13T12:33:18;3.00;2.00;2.00
68698;PMS7003;55680;48.850;2.310;2023-10-13T12:35:59;5.25;4.00;3.25
68698;PMS7003;55680;48.850;2.310;2023-10-13T12:38:30;2.50;2.50;1.00
68698;PMS7003;55680;48.850;2.310;2023-10-13T12:41:10;3.50;3.50;2.50
68698;PMS7003;55680;48.850;2.310;2023-10-13T12:43:55;2.50;2.50;1.75
68698;PMS7003;55680;48.850;2.310;2023-10-13T12:46:38;6.00;4.00;2.00
68698;PMS7003;55680;48.850;2.310;2023-10-13T12:49:22;2.75;2.50;2.00
68698;PMS7003;55680;48.850;2.310;2023-10-13T12:52:14;4.00;3.00;2.00
68698;PMS7003;55680;48.850;2.310;2023-10-13T12:54:50;3.75;3.00;1.75
68698;PMS7003;55680;48.850;2.310;2023-10-13T12:57:39;3.50;3.25;2.00
68698;PMS7003;55680;48.850;2.310;2023-10-13T13:00:11;7.50;4.25;2.75
68698;PMS7003;55680;48.850;2.310;2023-10-13T13:02:48;3.50;2.75;2.00
68698;PMS7003;55680;48.850;2.310;2023-10-13T13:05:16;2.75;2.75;2.25
68698;PMS7003;55680;48.850;2.310;2023-10-13T13:07:46;5.25;4.00;2.00
68698;PMS7003;55680;48.850;2.310;2023-10-13T13:10:17;3.75;2.50;1.75
68698;PMS7003;55680;48.850;2.310;2023-10-13T13:12:43;6.25;3.75;2.50
68698;PMS7003;55680;48.850;2.310;2023-10-13T13:15:09;4.25;3.00;1.75
68698;PMS7003;55680;48.850;2.310;2023-10-13T13:17:36;5.00;5.00;2.75
68698;PMS7003;55680;48.850;2.310;2023-10-13T13:20:05;4.00;3.75;3.00
68698;PMS7003;55680;48.850;2.310;2023-10-13T13:22:51;4.25;3.25;2.00
68698;PMS7003;55680;48.850;2.310;2023-10-13T13:25:18;2.50;2.50;1.50
68698;PMS7003;55680;48.850;2.310;2023-10-13T13:27:50;3.00;3.00;3.00
68698;PMS7003;55680;48.850;2.310;2023-10-13T13:30:15;1.75;1.75;1.75
68698;PMS7003;55680;48.850;2.310;2023-10-13T13:32:45;5.00;4.00;3.00
68698;PMS7003;55680;48.850;2.310;2023-10-13T13:35:11;5.25;5.25;4.75
68698;PMS7003;55680;48.850;2.310;2023-10-13T13:37:39;5.25;3.00;2.50
68698;PMS7003;55680;48.850;2.310;2023-10-13T13:40:05;4.00;2.75;0.75
68698;PMS7003;55680;48.850;2.310;2023-10-13T13:42:44;1.25;1.25;1.00
68698;PMS7003;55680;48.850;2.310;2023-10-13T13:45:13;6.25;3.00;2.00
68698;PMS7003;55680;48.850;2.310;2023-10-13T13:47:52;4.00;4.00;3.00
68698;PMS7003;55680;48.850;2.310;2023-10-13T13:50:21;3.00;3.00;2.25
68698;PMS7003;55680;48.850;2.310;2023-10-13T13:52:52;4.00;4.00;3.00
68698;PMS7003;55680;48.850;2.310;2023-10-13T13:55:25;3.00;2.25;1.75
68698;PMS7003;55680;48.850;2.310;2023-10-13T13:57:56;4.00;2.75;2.50
68698;PMS7003;55680;48.850;2.310;2023-10-13T14:00:22;5.25;2.00;1.75
68698;PMS7003;55680;48.850;2.310;2023-10-13T14:03:06;5.25;4.75;2.50
68698;PMS7003;55680;48.850;2.310;2023-10-13T14:05:43;2.00;2.00;2.00
68698;PMS7003;55680;48.850;2.310;2023-10-13T14:08:08;5.25;3.25;2.50
68698;PMS7003;55680;48.850;2.310;2023-10-13T14:10:37;4.50;3.00;1.50
68698;PMS7003;55680;48.850;2.310;2023-10-13T14:13:23;4.00;3.00;2.00
68698;PMS7003;55680;48.850;2.310;2023-10-13T14:16:08;7.25;5.75;3.50
68698;PMS7003;55680;48.850;2.310;2023-10-13T14:18:41;3.00;3.00;2.00
68698;PMS7003;55680;48.850;2.310;2023-10-13T14:21:10;2.25;1.00;1.00
68698;PMS7003;55680;48.850;2.310;2023-10-13T14:23:41;5.75;3.00;3.00
68698;PMS7003;55680;48.850;2.310;2023-10-13T14:26:13;2.00;2.00;1.50
68698;PMS7003;55680;48.850;2.310;2023-10-13T14:28:39;3.00;2.50;2.00
68698;PMS7003;55680;48.850;2.310;2023-10-13T14:31:17;8.00;4.75;3.00
68698;PMS7003;55680;48.850;2.310;2023-10-13T14:33:44;5.75;3.25;2.25
68698;PMS7003;55680;48.850;2.310;2023-10-13T14:36:11;3.00;3.00;2.00
68698;PMS7003;55680;48.850;2.310;2023-10-13T14:38:36;4.00;4.00;3.25
68698;PMS7003;55680;48.850;2.310;2023-10-13T14:41:02;1.50;1.50;1.00
68698;PMS7003;55680;48.850;2.310;2023-10-13T14:43:27;4.00;3.50;2.50
68698;PMS7003;55680;48.850;2.310;2023-10-13T14:45:53;1.00;1.00;1.00
68698;PMS7003;55680;48.850;2.310;2023-10-13T14:48:18;6.75;6.75;3.00
68698;PMS7003;55680;48.850;2.310;2023-10-13T14:50:44;3.25;3.25;3.00
68698;PMS7003;55680;48.850;2.310;2023-10-13T14:53:10;5.75;3.25;1.75
68698;PMS7003;55680;48.850;2.310;2023-10-13T14:55:36;2.00;1.75;1.75
68698;PMS7003;55680;48.850;2.310;2023-10-13T14:58:04;9.00;7.00;4.00
68698;PMS7003;55680;48.850;2.310;2023-10-13T15:00:30;7.00;6.00;3.50
68698;PMS7003;55680;48.850;2.310;2023-10-13T15:02:56;3.00;2.00;1.00
68698;PMS7003;55680;48.850;2.310;2023-10-13T15:05:26;1.50;1.50;1.00
68698;PMS7003;55680;48.850;2.310;2023-10-13T15:08:00;9.00;7.00;4.50
68698;PMS7003;55680;48.850;2.310;2023-10-13T15:10:28;2.50;2.50;2.00